sensor_id;sensor_type;location;lat;lon;timestamp;P1;durP1;ratioP1;P2;durP2;ratioP2
47429;SDS011;33181;49.246;7.372;2022-11-21T00:00:29;6.23;;;3.47;;
47429;SDS011;33181;49.246;7.372;2022-11-21T00:02:56;5.70;;;3.13;;
47429;SDS011;33181;49.246;7.372;2022-11-21T00:05:29;13.03;;;4.07;;
47429;SDS011;33181;49.246;7.372;2022-11-21T00:07:56;10.40;;;3.83;;
47429;SDS011;33181;49.246;7.372;2022-11-21T00:10:23;8.10;;;3.53;;
47429;SDS011;33181;49.246;7.372;2022-11-21T00:12:54;10.23;;;4.20;;
47429;SDS011;33181;49.246;7.372;2022-11-21T00:15:21;11.30;;;4.50;;
47429;SDS011;33181;49.246;7.372;2022-11-21T00:17:48;7.97;;;4.30;;
47429;SDS011;33181;49.246;7.372;2022-11-21T00:20:15;11.30;;;4.23;;
47429;SDS011;33181;49.246;7.372;2022-11-21T00:22:42;10.87;;;4.43;;
47429;SDS011;33181;49.246;7.372;2022-11-21T00:25:08;9.57;;;4.37;;
47429;SDS011;33181;49.246;7.372;2022-11-21T00:27:34;11.80;;;4.37;;
47429;SDS011;33181;49.246;7.372;2022-11-21T00:30:00;8.90;;;3.80;;
47429;SDS011;33181;49.246;7.372;2022-11-21T00:32:26;8.27;;;3.73;;
47429;SDS011;33181;49.246;7.372;2022-11-21T00:34:51;10.60;;;4.20;;
47429;SDS011;33181;49.246;7.372;2022-11-21T00:37:17;10.37;;;4.57;;
47429;SDS011;33181;49.246;7.372;2022-11-21T00:39:43;13.23;;;3.20;;
47429;SDS011;33181;49.246;7.372;2022-11-21T00:42:09;6.50;;;3.70;;
47429;SDS011;33181;49.246;7.372;2022-11-21T00:44:34;7.30;;;3.10;;
47429;SDS011;33181;49.246;7.372;2022-11-21T00:47:00;9.60;;;3.77;;
47429;SDS011;33181;49.246;7.372;2022-11-21T00:49:26;4.90;;;3.00;;
47429;SDS011;33181;49.246;7.372;2022-11-21T00:51:52;4.53;;;2.80;;
47429;SDS011;33181;49.246;7.372;2022-11-21T00:54:18;4.10;;;2.83;;
47429;SDS011;33181;49.246;7.372;2022-11-21T00:56:44;6.00;;;3.00;;
47429;SDS011;33181;49.246;7.372;2022-11-21T00:59:09;6.30;;;2.60;;
47429;SDS011;33181;49.246;7.372;2022-11-21T01:01:35;6.80;;;3.00;;
47429;SDS011;33181;49.246;7.372;2022-11-21T01:04:01;4.57;;;2.43;;
47429;SDS011;33181;49.246;7.372;2022-11-21T01:06:26;9.30;;;2.90;;
47429;SDS011;33181;49.246;7.372;2022-11-21T01:08:52;4.87;;;2.60;;
47429;SDS011;33181;49.246;7.372;2022-11-21T01:11:19;4.63;;;2.40;;
47429;SDS011;33181;49.246;7.372;2022-11-21T01:13:45;6.47;;;2.80;;
47429;SDS011;33181;49.246;7.372;2022-11-21T01:16:14;2.63;;;2.30;;
47429;SDS011;33181;49.246;7.372;2022-11-21T01:18:43;4.90;;;2.50;;
47429;SDS011;33181;49.246;7.372;2022-11-21T01:23:42;4.00;;;2.30;;
47429;SDS011;33181;49.246;7.372;2022-11-21T01:26:09;4.70;;;2.40;;
47429;SDS011;33181;49.246;7.372;2022-11-21T01:28:38;8.40;;;2.67;;
47429;SDS011;33181;49.246;7.372;2022-11-21T01:31:05;6.53;;;2.50;;
47429;SDS011;33181;49.246;7.372;2022-11-21T01:33:37;6.50;;;2.60;;
47429;SDS011;33181;49.246;7.372;2022-11-21T01:38:42;4.53;;;2.50;;
47429;SDS011;33181;49.246;7.372;2022-11-21T01:41:12;4.13;;;2.50;;
47429;SDS011;33181;49.246;7.372;2022-11-21T01:43:41;4.63;;;2.23;;
47429;SDS011;33181;49.246;7.372;2022-11-21T01:54:03;4.27;;;2.13;;
47429;SDS011;33181;49.246;7.372;2022-11-21T01:56:42;4.63;;;2.50;;
47429;SDS011;33181;49.246;7.372;2022-11-21T01:59:19;3.20;;;2.20;;
47429;SDS011;33181;49.246;7.372;2022-11-21T02:01:52;2.60;;;2.03;;
47429;SDS011;33181;49.246;7.372;2022-11-21T02:04:20;4.20;;;2.70;;
47429;SDS011;33181;49.246;7.372;2022-11-21T02:06:49;5.00;;;2.53;;
47429;SDS011;33181;49.246;7.372;2022-11-21T02:09:15;5.00;;;2.63;;
47429;SDS011;33181;49.246;7.372;2022-11-21T02:11:53;6.43;;;2.60;;
47429;SDS011;33181;49.246;7.372;2022-11-21T02:14:25;4.27;;;2.50;;
47429;SDS011;33181;49.246;7.372;2022-11-21T02:16:52;4.73;;;2.67;;
47429;SDS011;33181;49.246;7.372;2022-11-21T02:19:34;4.57;;;2.60;;
47429;SDS011;33181;49.246;7.372;2022-11-21T02:22:16;3.93;;;2.90;;
47429;SDS011;33181;49.246;7.372;2022-11-21T02:27:26;5.50;;;2.90;;
47429;SDS011;33181;49.246;7.372;2022-11-21T02:29:53;5.30;;;2.90;;
47429;SDS011;33181;49.246;7.372;2022-11-21T02:32:23;4.90;;;2.63;;
47429;SDS011;33181;49.246;7.372;2022-11-21T02:34:56;6.30;;;2.30;;
47429;SDS011;33181;49.246;7.372;2022-11-21T02:37:22;5.50;;;3.30;;
47429;SDS011;33181;49.246;7.372;2022-11-21T02:39:48;5.63;;;2.70;;
47429;SDS011;33181;49.246;7.372;2022-11-21T02:42:22;9.00;;;3.27;;
47429;SDS011;33181;49.246;7.372;2022-11-21T02:48:05;6.43;;;2.80;;
47429;SDS011;33181;49.246;7.372;2022-11-21T02:50:32;6.37;;;2.97;;
47429;SDS011;33181;49.246;7.372;2022-11-21T02:53:00;5.20;;;2.70;;
47429;SDS011;33181;49.246;7.372;2022-11-21T02:55:28;6.00;;;3.00;;
47429;SDS011;33181;49.246;7.372;2022-11-21T02:57:54;7.77;;;3.33;;
47429;SDS011;33181;49.246;7.372;2022-11-21T03:00:20;3.80;;;2.67;;
47429;SDS011;33181;49.246;7.372;2022-11-21T03:02:46;5.37;;;2.80;;
47429;SDS011;33181;49.246;7.372;2022-11-21T03:05:14;4.00;;;2.70;;
47429;SDS011;33181;49.246;7.372;2022-11-21T03:07:42;5.30;;;3.10;;
47429;SDS011;33181;49.246;7.372;2022-11-21T03:10:09;6.77;;;3.20;;
47429;SDS011;33181;49.246;7.372;2022-11-21T03:12:36;5.67;;;2.97;;
47429;SDS011;33181;49.246;7.372;2022-11-21T03:15:03;6.57;;;3.23;;
47429;SDS011;33181;49.246;7.372;2022-11-21T03:17:32;5.57;;;2.93;;
47429;SDS011;33181;49.246;7.372;2022-11-21T03:19:57;7.03;;;3.53;;
47429;SDS011;33181;49.246;7.372;2022-11-21T03:22:23;6.40;;;3.20;;
47429;SDS011;33181;49.246;7.372;2022-11-21T03:24:49;5.30;;;3.07;;
47429;SDS011;33181;49.246;7.372;2022-11-21T03:27:15;7.93;;;3.47;;
47429;SDS011;33181;49.246;7.372;2022-11-21T03:29:40;10.33;;;3.27;;
47429;SDS011;33181;49.246;7.372;2022-11-21T03:32:06;5.20;;;3.40;;
47429;SDS011;33181;49.246;7.372;2022-11-21T03:34:32;7.07;;;3.30;;
47429;SDS011;33181;49.246;7.372;2022-11-21T03:36:58;4.90;;;3.30;;
47429;SDS011;33181;49.246;7.372;2022-11-21T03:39:23;5.90;;;3.20;;
47429;SDS011;33181;49.246;7.372;2022-11-21T03:41:49;7.43;;;3.13;;
47429;SDS011;33181;49.246;7.372;2022-11-21T03:44:15;6.40;;;3.30;;
47429;SDS011;33181;49.246;7.372;2022-11-21T03:46:42;7.87;;;3.50;;
47429;SDS011;33181;49.246;7.372;2022-11-21T03:49:09;6.23;;;4.23;;
47429;SDS011;33181;49.246;7.372;2022-11-21T03:51:36;5.23;;;3.17;;
47429;SDS011;33181;49.246;7.372;2022-11-21T03:54:02;5.70;;;3.73;;
47429;SDS011;33181;49.246;7.372;2022-11-21T03:56:28;6.13;;;3.20;;
47429;SDS011;33181;49.246;7.372;2022-11-21T03:58:55;6.50;;;3.60;;
47429;SDS011;33181;49.246;7.372;2022-11-21T04:01:21;7.97;;;3.70;;
47429;SDS011;33181;49.246;7.372;2022-11-21T04:03:48;8.03;;;3.77;;
47429;SDS011;33181;49.246;7.372;2022-11-21T04:06:16;7.57;;;3.80;;
47429;SDS011;33181;49.246;7.372;2022-11-21T04:08:44;10.40;;;4.03;;
47429;SDS011;33181;49.246;7.372;2022-11-21T04:11:11;11.50;;;3.60;;
47429;SDS011;33181;49.246;7.372;2022-11-21T04:13:36;11.40;;;3.60;;
47429;SDS011;33181;49.246;7.372;2022-11-21T04:16:03;9.60;;;3.70;;
47429;SDS011;33181;49.246;7.372;2022-11-21T04:18:29;5.63;;;3.53;;
47429;SDS011;33181;49.246;7.372;2022-11-21T04:20:59;9.87;;;3.93;;
47429;SDS011;33181;49.246;7.372;2022-11-21T04:23:26;8.83;;;3.73;;
47429;SDS011;33181;49.246;7.372;2022-11-21T04:25:52;7.70;;;3.67;;
47429;SDS011;33181;49.246;7.372;2022-11-21T04:28:19;10.60;;;3.83;;
47429;SDS011;33181;49.246;7.372;2022-11-21T04:30:45;11.07;;;3.83;;
47429;SDS011;33181;49.246;7.372;2022-11-21T04:33:12;8.00;;;4.20;;
47429;SDS011;33181;49.246;7.372;2022-11-21T04:35:41;7.33;;;3.70;;
47429;SDS011;33181;49.246;7.372;2022-11-21T04:38:07;10.80;;;3.97;;
47429;SDS011;33181;49.246;7.372;2022-11-21T04:40:34;14.70;;;4.20;;
47429;SDS011;33181;49.246;7.372;2022-11-21T04:43:00;8.97;;;3.90;;
47429;SDS011;33181;49.246;7.372;2022-11-21T04:45:25;9.83;;;4.13;;
47429;SDS011;33181;49.246;7.372;2022-11-21T04:47:51;7.13;;;3.80;;
47429;SDS011;33181;49.246;7.372;2022-11-21T04:50:17;12.40;;;4.10;;
47429;SDS011;33181;49.246;7.372;2022-11-21T04:52:54;17.90;;;4.33;;
47429;SDS011;33181;49.246;7.372;2022-11-21T04:55:21;11.40;;;4.20;;
47429;SDS011;33181;49.246;7.372;2022-11-21T04:57:52;8.93;;;4.00;;
47429;SDS011;33181;49.246;7.372;2022-11-21T05:00:18;6.47;;;3.30;;
47429;SDS011;33181;49.246;7.372;2022-11-21T05:02:45;9.10;;;3.87;;
47429;SDS011;33181;49.246;7.372;2022-11-21T05:05:11;14.60;;;3.67;;
47429;SDS011;33181;49.246;7.372;2022-11-21T05:07:37;12.40;;;3.83;;
47429;SDS011;33181;49.246;7.372;2022-11-21T05:10:04;7.30;;;4.00;;
47429;SDS011;33181;49.246;7.372;2022-11-21T05:12:30;11.00;;;3.40;;
47429;SDS011;33181;49.246;7.372;2022-11-21T05:15:15;9.17;;;3.97;;
47429;SDS011;33181;49.246;7.372;2022-11-21T05:17:41;7.77;;;4.07;;
47429;SDS011;33181;49.246;7.372;2022-11-21T05:20:07;11.03;;;3.60;;
47429;SDS011;33181;49.246;7.372;2022-11-21T05:22:33;6.60;;;3.50;;
47429;SDS011;33181;49.246;7.372;2022-11-21T05:24:59;10.10;;;3.40;;
47429;SDS011;33181;49.246;7.372;2022-11-21T05:27:25;12.00;;;4.17;;
47429;SDS011;33181;49.246;7.372;2022-11-21T05:29:50;12.63;;;3.07;;
47429;SDS011;33181;49.246;7.372;2022-11-21T05:32:17;10.20;;;3.53;;
47429;SDS011;33181;49.246;7.372;2022-11-21T05:34:43;8.37;;;3.77;;
47429;SDS011;33181;49.246;7.372;2022-11-21T05:37:08;6.37;;;3.40;;
47429;SDS011;33181;49.246;7.372;2022-11-21T05:39:34;9.33;;;3.67;;
47429;SDS011;33181;49.246;7.372;2022-11-21T05:42:00;9.77;;;3.17;;
47429;SDS011;33181;49.246;7.372;2022-11-21T05:44:25;8.93;;;3.33;;
47429;SDS011;33181;49.246;7.372;2022-11-21T05:46:51;9.53;;;3.50;;
47429;SDS011;33181;49.246;7.372;2022-11-21T05:49:17;9.87;;;3.20;;
47429;SDS011;33181;49.246;7.372;2022-11-21T05:51:43;10.80;;;3.93;;
47429;SDS011;33181;49.246;7.372;2022-11-21T05:54:12;7.47;;;3.23;;
47429;SDS011;33181;49.246;7.372;2022-11-21T05:56:38;7.37;;;3.40;;
47429;SDS011;33181;49.246;7.372;2022-11-21T05:59:04;5.73;;;3.30;;
47429;SDS011;33181;49.246;7.372;2022-11-21T06:01:30;9.40;;;3.27;;
47429;SDS011;33181;49.246;7.372;2022-11-21T06:04:15;5.93;;;3.47;;
47429;SDS011;33181;49.246;7.372;2022-11-21T06:06:40;6.13;;;3.03;;
47429;SDS011;33181;49.246;7.372;2022-11-21T06:09:06;9.70;;;3.53;;
47429;SDS011;33181;49.246;7.372;2022-11-21T06:11:32;7.73;;;3.33;;
47429;SDS011;33181;49.246;7.372;2022-11-21T06:13:58;6.23;;;3.00;;
47429;SDS011;33181;49.246;7.372;2022-11-21T06:16:23;10.13;;;3.80;;
47429;SDS011;33181;49.246;7.372;2022-11-21T06:18:50;10.50;;;3.73;;
47429;SDS011;33181;49.246;7.372;2022-11-21T06:21:22;11.53;;;3.70;;
47429;SDS011;33181;49.246;7.372;2022-11-21T06:23:51;5.30;;;3.33;;
47429;SDS011;33181;49.246;7.372;2022-11-21T06:26:20;9.03;;;3.60;;
47429;SDS011;33181;49.246;7.372;2022-11-21T06:28:48;9.37;;;3.57;;
47429;SDS011;33181;49.246;7.372;2022-11-21T06:31:16;8.30;;;4.23;;
47429;SDS011;33181;49.246;7.372;2022-11-21T06:33:45;6.30;;;3.30;;
47429;SDS011;33181;49.246;7.372;2022-11-21T06:36:12;11.90;;;4.00;;
47429;SDS011;33181;49.246;7.372;2022-11-21T06:38:40;4.70;;;3.40;;
47429;SDS011;33181;49.246;7.372;2022-11-21T06:41:08;12.20;;;3.80;;
47429;SDS011;33181;49.246;7.372;2022-11-21T06:43:42;8.10;;;3.50;;
47429;SDS011;33181;49.246;7.372;2022-11-21T06:46:10;12.57;;;3.90;;
47429;SDS011;33181;49.246;7.372;2022-11-21T06:48:37;12.13;;;3.80;;
47429;SDS011;33181;49.246;7.372;2022-11-21T06:51:11;12.60;;;4.10;;
47429;SDS011;33181;49.246;7.372;2022-11-21T06:53:41;8.80;;;3.87;;
47429;SDS011;33181;49.246;7.372;2022-11-21T06:56:06;8.70;;;3.40;;
47429;SDS011;33181;49.246;7.372;2022-11-21T06:58:32;8.13;;;4.27;;
47429;SDS011;33181;49.246;7.372;2022-11-21T07:01:02;9.63;;;4.10;;
47429;SDS011;33181;49.246;7.372;2022-11-21T07:03:30;8.40;;;3.93;;
47429;SDS011;33181;49.246;7.372;2022-11-21T07:05:55;10.40;;;4.20;;
47429;SDS011;33181;49.246;7.372;2022-11-21T07:08:25;7.77;;;3.83;;
47429;SDS011;33181;49.246;7.372;2022-11-21T07:10:52;14.80;;;4.10;;
47429;SDS011;33181;49.246;7.372;2022-11-21T07:13:18;8.37;;;4.23;;
47429;SDS011;33181;49.246;7.372;2022-11-21T07:15:53;16.50;;;4.03;;
47429;SDS011;33181;49.246;7.372;2022-11-21T07:18:20;8.20;;;4.10;;
47429;SDS011;33181;49.246;7.372;2022-11-21T07:20:47;8.03;;;3.90;;
47429;SDS011;33181;49.246;7.372;2022-11-21T07:23:13;13.90;;;3.97;;
47429;SDS011;33181;49.246;7.372;2022-11-21T07:25:39;10.77;;;4.40;;
47429;SDS011;33181;49.246;7.372;2022-11-21T07:28:06;10.27;;;3.53;;
47429;SDS011;33181;49.246;7.372;2022-11-21T07:30:33;10.53;;;4.13;;
47429;SDS011;33181;49.246;7.372;2022-11-21T07:33:01;8.07;;;3.77;;
47429;SDS011;33181;49.246;7.372;2022-11-21T07:35:29;14.10;;;3.93;;
47429;SDS011;33181;49.246;7.372;2022-11-21T07:37:56;7.17;;;3.60;;
47429;SDS011;33181;49.246;7.372;2022-11-21T07:40:22;6.87;;;3.43;;
47429;SDS011;33181;49.246;7.372;2022-11-21T07:42:48;13.97;;;4.17;;
47429;SDS011;33181;49.246;7.372;2022-11-21T07:45:14;12.73;;;4.00;;
47429;SDS011;33181;49.246;7.372;2022-11-21T07:47:40;8.93;;;3.70;;
47429;SDS011;33181;49.246;7.372;2022-11-21T07:50:06;8.87;;;4.20;;
47429;SDS011;33181;49.246;7.372;2022-11-21T07:52:34;11.00;;;4.17;;
47429;SDS011;33181;49.246;7.372;2022-11-21T07:55:00;13.83;;;4.00;;
47429;SDS011;33181;49.246;7.372;2022-11-21T07:57:26;11.60;;;4.40;;
47429;SDS011;33181;49.246;7.372;2022-11-21T07:59:53;11.90;;;4.00;;
47429;SDS011;33181;49.246;7.372;2022-11-21T08:02:19;10.63;;;4.07;;
47429;SDS011;33181;49.246;7.372;2022-11-21T08:04:48;12.73;;;4.00;;
47429;SDS011;33181;49.246;7.372;2022-11-21T08:07:14;16.57;;;5.80;;
47429;SDS011;33181;49.246;7.372;2022-11-21T08:09:41;8.63;;;4.20;;
47429;SDS011;33181;49.246;7.372;2022-11-21T08:12:07;9.57;;;4.30;;
47429;SDS011;33181;49.246;7.372;2022-11-21T08:14:34;7.73;;;4.20;;
47429;SDS011;33181;49.246;7.372;2022-11-21T08:17:01;12.77;;;4.47;;
47429;SDS011;33181;49.246;7.372;2022-11-21T08:19:28;8.90;;;4.07;;
47429;SDS011;33181;49.246;7.372;2022-11-21T08:21:53;12.07;;;4.40;;
47429;SDS011;33181;49.246;7.372;2022-11-21T08:24:19;16.90;;;5.10;;
47429;SDS011;33181;49.246;7.372;2022-11-21T08:26:45;8.93;;;3.90;;
47429;SDS011;33181;49.246;7.372;2022-11-21T08:29:11;9.93;;;4.33;;
47429;SDS011;33181;49.246;7.372;2022-11-21T08:31:41;14.47;;;4.30;;
47429;SDS011;33181;49.246;7.372;2022-11-21T08:34:08;10.73;;;4.17;;
47429;SDS011;33181;49.246;7.372;2022-11-21T08:36:34;14.97;;;4.97;;
47429;SDS011;33181;49.246;7.372;2022-11-21T08:39:00;10.83;;;4.97;;
47429;SDS011;33181;49.246;7.372;2022-11-21T08:41:26;12.87;;;4.70;;
47429;SDS011;33181;49.246;7.372;2022-11-21T08:44:10;11.97;;;4.53;;
47429;SDS011;33181;49.246;7.372;2022-11-21T08:46:36;10.30;;;4.40;;
47429;SDS011;33181;49.246;7.372;2022-11-21T08:49:05;13.80;;;4.47;;
47429;SDS011;33181;49.246;7.372;2022-11-21T08:51:32;12.23;;;4.60;;
47429;SDS011;33181;49.246;7.372;2022-11-21T08:54:01;8.83;;;4.37;;
47429;SDS011;33181;49.246;7.372;2022-11-21T08:56:28;14.40;;;5.10;;
47429;SDS011;33181;49.246;7.372;2022-11-21T08:58:54;13.47;;;5.20;;
47429;SDS011;33181;49.246;7.372;2022-11-21T09:01:20;16.90;;;4.77;;
47429;SDS011;33181;49.246;7.372;2022-11-21T09:03:47;12.40;;;5.07;;
47429;SDS011;33181;49.246;7.372;2022-11-21T09:06:13;15.17;;;4.40;;
47429;SDS011;33181;49.246;7.372;2022-11-21T09:08:39;10.93;;;4.97;;
47429;SDS011;33181;49.246;7.372;2022-11-21T09:11:05;17.70;;;5.57;;
47429;SDS011;33181;49.246;7.372;2022-11-21T09:13:33;11.23;;;5.10;;
47429;SDS011;33181;49.246;7.372;2022-11-21T09:16:00;16.40;;;5.30;;
47429;SDS011;33181;49.246;7.372;2022-11-21T09:18:46;14.97;;;5.07;;
47429;SDS011;33181;49.246;7.372;2022-11-21T09:21:13;13.93;;;5.50;;
47429;SDS011;33181;49.246;7.372;2022-11-21T09:23:43;10.23;;;5.00;;
47429;SDS011;33181;49.246;7.372;2022-11-21T09:26:09;15.13;;;5.33;;
47429;SDS011;33181;49.246;7.372;2022-11-21T09:28:36;13.07;;;5.70;;
47429;SDS011;33181;49.246;7.372;2022-11-21T09:31:02;12.57;;;5.43;;
47429;SDS011;33181;49.246;7.372;2022-11-21T09:33:29;15.73;;;5.70;;
47429;SDS011;33181;49.246;7.372;2022-11-21T09:35:58;12.27;;;5.53;;
47429;SDS011;33181;49.246;7.372;2022-11-21T09:38:25;12.97;;;6.20;;
47429;SDS011;33181;49.246;7.372;2022-11-21T09:40:53;13.67;;;6.33;;
47429;SDS011;33181;49.246;7.372;2022-11-21T09:43:59;17.90;;;5.93;;
47429;SDS011;33181;49.246;7.372;2022-11-21T09:46:34;12.80;;;6.47;;
47429;SDS011;33181;49.246;7.372;2022-11-21T09:49:11;15.07;;;6.90;;
47429;SDS011;33181;49.246;7.372;2022-11-21T09:51:38;17.20;;;7.07;;
47429;SDS011;33181;49.246;7.372;2022-11-21T09:56:46;15.10;;;7.33;;
47429;SDS011;33181;49.246;7.372;2022-11-21T09:59:33;18.57;;;7.67;;
47429;SDS011;33181;49.246;7.372;2022-11-21T10:02:01;14.80;;;7.70;;
47429;SDS011;33181;49.246;7.372;2022-11-21T10:04:37;14.83;;;7.33;;
47429;SDS011;33181;49.246;7.372;2022-11-21T10:07:04;15.83;;;7.47;;
47429;SDS011;33181;49.246;7.372;2022-11-21T10:25:55;13.57;;;6.60;;
47429;SDS011;33181;49.246;7.372;2022-11-21T10:28:49;15.67;;;7.80;;
47429;SDS011;33181;49.246;7.372;2022-11-21T10:31:22;13.70;;;6.40;;
47429;SDS011;33181;49.246;7.372;2022-11-21T10:33:50;14.00;;;6.37;;
47429;SDS011;33181;49.246;7.372;2022-11-21T10:38:57;12.60;;;6.70;;
47429;SDS011;33181;49.246;7.372;2022-11-21T10:47:18;15.00;;;6.73;;
47429;SDS011;33181;49.246;7.372;2022-11-21T10:50:02;14.93;;;6.70;;
47429;SDS011;33181;49.246;7.372;2022-11-21T10:52:33;14.80;;;7.10;;
47429;SDS011;33181;49.246;7.372;2022-11-21T10:55:26;20.40;;;7.70;;
47429;SDS011;33181;49.246;7.372;2022-11-21T10:57:52;17.17;;;7.47;;
47429;SDS011;33181;49.246;7.372;2022-11-21T11:00:21;13.33;;;5.47;;
47429;SDS011;33181;49.246;7.372;2022-11-21T11:05:22;14.60;;;4.70;;
47429;SDS011;33181;49.246;7.372;2022-11-21T11:10:25;12.70;;;5.13;;
47429;SDS011;33181;49.246;7.372;2022-11-21T11:12:51;14.50;;;4.80;;
47429;SDS011;33181;49.246;7.372;2022-11-21T11:15:36;11.00;;;5.33;;
47429;SDS011;33181;49.246;7.372;2022-11-21T11:18:18;13.17;;;5.10;;
47429;SDS011;33181;49.246;7.372;2022-11-21T11:20:46;9.50;;;4.33;;
47429;SDS011;33181;49.246;7.372;2022-11-21T11:25:49;9.83;;;3.40;;
47429;SDS011;33181;49.246;7.372;2022-11-21T11:28:23;10.97;;;3.70;;
47429;SDS011;33181;49.246;7.372;2022-11-21T11:30:52;9.37;;;4.53;;
47429;SDS011;33181;49.246;7.372;2022-11-21T11:33:29;17.80;;;5.90;;
47429;SDS011;33181;49.246;7.372;2022-11-21T11:36:06;10.00;;;3.30;;
47429;SDS011;33181;49.246;7.372;2022-11-21T11:38:52;11.67;;;4.80;;
47429;SDS011;33181;49.246;7.372;2022-11-21T11:41:31;13.87;;;4.07;;
47429;SDS011;33181;49.246;7.372;2022-11-21T11:48:00;10.47;;;3.40;;
47429;SDS011;33181;49.246;7.372;2022-11-21T11:50:44;7.67;;;3.07;;
47429;SDS011;33181;49.246;7.372;2022-11-21T11:53:22;10.53;;;4.03;;
47429;SDS011;33181;49.246;7.372;2022-11-21T12:01:20;11.57;;;4.37;;
47429;SDS011;33181;49.246;7.372;2022-11-21T12:04:17;15.13;;;4.07;;
47429;SDS011;33181;49.246;7.372;2022-11-21T12:13:05;7.77;;;3.33;;
47429;SDS011;33181;49.246;7.372;2022-11-21T12:15:31;13.50;;;4.17;;
47429;SDS011;33181;49.246;7.372;2022-11-21T12:23:34;12.40;;;4.37;;
47429;SDS011;33181;49.246;7.372;2022-11-21T12:35:07;10.77;;;4.30;;
47429;SDS011;33181;49.246;7.372;2022-11-21T12:40:58;12.53;;;3.90;;
47429;SDS011;33181;49.246;7.372;2022-11-21T12:47:26;9.33;;;3.83;;
47429;SDS011;33181;49.246;7.372;2022-11-21T12:50:38;14.60;;;4.53;;
47429;SDS011;33181;49.246;7.372;2022-11-21T12:57:12;10.60;;;3.30;;
47429;SDS011;33181;49.246;7.372;2022-11-21T13:05:26;10.80;;;3.73;;
47429;SDS011;33181;49.246;7.372;2022-11-21T13:10:50;9.63;;;3.67;;
47429;SDS011;33181;49.246;7.372;2022-11-21T13:13:47;12.73;;;3.70;;
47429;SDS011;33181;49.246;7.372;2022-11-21T13:16:23;13.70;;;3.30;;
47429;SDS011;33181;49.246;7.372;2022-11-21T13:19:02;7.20;;;3.57;;
47429;SDS011;33181;49.246;7.372;2022-11-21T13:21:46;14.80;;;4.20;;
47429;SDS011;33181;49.246;7.372;2022-11-21T13:45:45;9.03;;;4.00;;
47429;SDS011;33181;49.246;7.372;2022-11-21T13:59:30;9.37;;;4.03;;
47429;SDS011;33181;49.246;7.372;2022-11-21T14:08:11;8.07;;;3.50;;
47429;SDS011;33181;49.246;7.372;2022-11-21T14:10:51;10.00;;;4.90;;
47429;SDS011;33181;49.246;7.372;2022-11-21T14:13:20;12.00;;;4.03;;
47429;SDS011;33181;49.246;7.372;2022-11-21T14:16:04;13.63;;;4.17;;
47429;SDS011;33181;49.246;7.372;2022-11-21T14:18:48;16.97;;;4.10;;
47429;SDS011;33181;49.246;7.372;2022-11-21T14:21:21;8.70;;;3.83;;
47429;SDS011;33181;49.246;7.372;2022-11-21T14:24:00;11.63;;;4.17;;
47429;SDS011;33181;49.246;7.372;2022-11-21T14:26:42;12.30;;;4.50;;
47429;SDS011;33181;49.246;7.372;2022-11-21T14:31:47;15.13;;;4.43;;
47429;SDS011;33181;49.246;7.372;2022-11-21T14:34:27;14.00;;;4.13;;
47429;SDS011;33181;49.246;7.372;2022-11-21T14:36:57;13.07;;;5.07;;
47429;SDS011;33181;49.246;7.372;2022-11-21T14:39:27;20.07;;;5.57;;
47429;SDS011;33181;49.246;7.372;2022-11-21T14:41:57;14.20;;;4.90;;
47429;SDS011;33181;49.246;7.372;2022-11-21T14:44:26;13.70;;;4.70;;
47429;SDS011;33181;49.246;7.372;2022-11-21T14:47:05;15.53;;;4.00;;
47429;SDS011;33181;49.246;7.372;2022-11-21T14:49:47;15.30;;;4.77;;
47429;SDS011;33181;49.246;7.372;2022-11-21T14:52:25;14.50;;;4.50;;
47429;SDS011;33181;49.246;7.372;2022-11-21T14:54:55;12.93;;;4.30;;
47429;SDS011;33181;49.246;7.372;2022-11-21T14:57:31;11.37;;;4.17;;
47429;SDS011;33181;49.246;7.372;2022-11-21T15:00:04;21.63;;;4.50;;
47429;SDS011;33181;49.246;7.372;2022-11-21T15:02:31;16.10;;;5.43;;
47429;SDS011;33181;49.246;7.372;2022-11-21T15:05:03;13.13;;;5.13;;
47429;SDS011;33181;49.246;7.372;2022-11-21T15:07:41;11.63;;;4.63;;
47429;SDS011;33181;49.246;7.372;2022-11-21T15:10:13;12.67;;;5.47;;
47429;SDS011;33181;49.246;7.372;2022-11-21T15:17:56;17.50;;;5.80;;
47429;SDS011;33181;49.246;7.372;2022-11-21T15:20:24;14.13;;;6.57;;
47429;SDS011;33181;49.246;7.372;2022-11-21T15:22:53;16.97;;;7.50;;
47429;SDS011;33181;49.246;7.372;2022-11-21T15:25:23;18.07;;;6.57;;
47429;SDS011;33181;49.246;7.372;2022-11-21T15:30:32;10.53;;;7.00;;
47429;SDS011;33181;49.246;7.372;2022-11-21T15:33:04;15.00;;;5.80;;
47429;SDS011;33181;49.246;7.372;2022-11-21T15:41:34;20.13;;;7.33;;
47429;SDS011;33181;49.246;7.372;2022-11-21T15:51:30;10.67;;;6.07;;
47429;SDS011;33181;49.246;7.372;2022-11-21T15:54:05;20.97;;;6.70;;
47429;SDS011;33181;49.246;7.372;2022-11-21T15:56:34;9.07;;;5.43;;
47429;SDS011;33181;49.246;7.372;2022-11-21T15:59:00;18.87;;;6.80;;
47429;SDS011;33181;49.246;7.372;2022-11-21T16:01:28;13.70;;;7.20;;
47429;SDS011;33181;49.246;7.372;2022-11-21T16:03:58;22.23;;;9.97;;
47429;SDS011;33181;49.246;7.372;2022-11-21T16:06:26;17.27;;;9.83;;
47429;SDS011;33181;49.246;7.372;2022-11-21T16:08:52;16.47;;;8.63;;
47429;SDS011;33181;49.246;7.372;2022-11-21T16:11:22;14.07;;;8.00;;
47429;SDS011;33181;49.246;7.372;2022-11-21T16:13:58;14.63;;;7.73;;
47429;SDS011;33181;49.246;7.372;2022-11-21T16:16:28;13.90;;;6.73;;
47429;SDS011;33181;49.246;7.372;2022-11-21T16:18:56;16.83;;;6.63;;
47429;SDS011;33181;49.246;7.372;2022-11-21T16:21:23;15.10;;;6.57;;
47429;SDS011;33181;49.246;7.372;2022-11-21T16:23:50;17.40;;;5.93;;
47429;SDS011;33181;49.246;7.372;2022-11-21T16:26:17;15.50;;;6.00;;
47429;SDS011;33181;49.246;7.372;2022-11-21T16:28:43;13.87;;;6.53;;
47429;SDS011;33181;49.246;7.372;2022-11-21T16:31:19;14.40;;;5.90;;
47429;SDS011;33181;49.246;7.372;2022-11-21T16:33:48;14.33;;;6.60;;
47429;SDS011;33181;49.246;7.372;2022-11-21T16:36:23;17.67;;;6.87;;
47429;SDS011;33181;49.246;7.372;2022-11-21T16:38:54;16.83;;;6.90;;
47429;SDS011;33181;49.246;7.372;2022-11-21T16:41:25;15.70;;;6.70;;
47429;SDS011;33181;49.246;7.372;2022-11-21T16:43:52;13.47;;;6.33;;
47429;SDS011;33181;49.246;7.372;2022-11-21T16:46:19;12.10;;;5.80;;
47429;SDS011;33181;49.246;7.372;2022-11-21T16:48:47;17.87;;;6.77;;
47429;SDS011;33181;49.246;7.372;2022-11-21T16:51:21;19.80;;;6.30;;
47429;SDS011;33181;49.246;7.372;2022-11-21T16:53:47;18.00;;;6.03;;
47429;SDS011;33181;49.246;7.372;2022-11-21T16:56:13;17.20;;;6.77;;
47429;SDS011;33181;49.246;7.372;2022-11-21T16:58:40;11.23;;;5.63;;
47429;SDS011;33181;49.246;7.372;2022-11-21T17:01:13;9.87;;;5.20;;
47429;SDS011;33181;49.246;7.372;2022-11-21T17:03:48;13.97;;;5.37;;
47429;SDS011;33181;49.246;7.372;2022-11-21T17:06:16;17.10;;;5.03;;
47429;SDS011;33181;49.246;7.372;2022-11-21T17:08:45;11.20;;;4.77;;
47429;SDS011;33181;49.246;7.372;2022-11-21T17:11:12;10.73;;;5.33;;
47429;SDS011;33181;49.246;7.372;2022-11-21T17:13:45;10.10;;;4.97;;
47429;SDS011;33181;49.246;7.372;2022-11-21T17:16:13;11.93;;;5.10;;
47429;SDS011;33181;49.246;7.372;2022-11-21T17:18:41;9.23;;;4.90;;
47429;SDS011;33181;49.246;7.372;2022-11-21T17:21:08;10.97;;;5.30;;
47429;SDS011;33181;49.246;7.372;2022-11-21T17:23:37;11.33;;;5.80;;
47429;SDS011;33181;49.246;7.372;2022-11-21T17:26:06;12.83;;;6.93;;
47429;SDS011;33181;49.246;7.372;2022-11-21T17:28:34;16.50;;;7.07;;
47429;SDS011;33181;49.246;7.372;2022-11-21T17:31:04;14.77;;;8.00;;
47429;SDS011;33181;49.246;7.372;2022-11-21T17:33:37;14.63;;;7.90;;
47429;SDS011;33181;49.246;7.372;2022-11-21T17:36:05;29.57;;;9.90;;
47429;SDS011;33181;49.246;7.372;2022-11-21T17:38:35;53.10;;;18.70;;
47429;SDS011;33181;49.246;7.372;2022-11-21T17:41:02;75.27;;;23.57;;